Time;durP1;ratioP1;P1;durP2;ratioP2;P2;SDS_P1;SDS_P2;PMS_P1;PMS_P2;Temp;Humidity;BMP_temperature;BMP_pressure;BME280_temperature;BME280_humidity;BME280_pressure;Samples;Min_cycle;Max_cycle;Signal;HPM_P1;HPM_P2
2022/07/15 00:01:06;;;;;;;2.90;1.33;;;;;;;;;;5068602;28;20234;-62
2022/07/15 00:03:33;;;;;;;1.63;1.27;;;;;;;;;;5068810;28;20218;-62
2022/07/15 00:06:00;;;;;;;1.77;1.20;;;;;;;;;;5068774;28;20211;-62
2022/07/15 00:08:28;;;;;;;1.40;1.40;;;;;;;;;;5067873;28;20207;-62
2022/07/15 00:10:55;;;;;;;1.20;1.20;;;;;;;;;;5058788;28;20254;-63
2022/07/15 00:13:24;;;;;;;1.42;1.30;;;;;;;;;;5067987;28;20225;-62
2022/07/15 00:15:51;;;;;;;2.05;1.33;;;;;;;;;;5067884;28;20209;-63
2022/07/15 00:18:20;;;;;;;1.08;1.08;;;;;;;;;;5068333;28;20210;-62
2022/07/15 00:20:47;;;;;;;3.33;1.10;;;;;;;;;;5067911;28;20207;-63
2022/07/15 00:23:14;;;;;;;1.35;1.10;;;;;;;;;;5067935;28;20210;-63
2022/07/15 00:25:41;;;;;;;1.75;1.38;;;;;;;;;;5067791;28;20236;-62
2022/07/15 00:28:08;;;;;;;1.95;0.98;;;;;;;;;;5076325;28;20203;-63
2022/07/15 00:30:36;;;;;;;1.42;1.33;;;;;;;;;;5066701;28;20948;-63
2022/07/15 00:33:04;;;;;;;1.23;1.23;;;;;;;;;;5063968;28;20251;-63
2022/07/15 00:35:33;;;;;;;2.53;1.20;;;;;;;;;;5068339;28;20256;-63
2022/07/15 00:38:00;;;;;;;1.20;1.20;;;;;;;;;;5067503;28;20211;-63
2022/07/15 00:40:27;;;;;;;1.25;1.20;;;;;;;;;;5067582;28;20203;-63
2022/07/15 00:42:54;;;;;;;1.55;1.27;;;;;;;;;;5067365;28;20214;-63
2022/07/15 00:45:23;;;;;;;2.25;1.25;;;;;;;;;;5067627;28;20211;-62
2022/07/15 00:47:50;;;;;;;1.42;1.42;;;;;;;;;;5065687;28;20211;-63
2022/07/15 00:50:18;;;;;;;1.50;1.40;;;;;;;;;;5067197;28;20226;-63
2022/07/15 00:52:47;;;;;;;1.60;1.40;;;;;;;;;;5065226;28;20203;-63
2022/07/15 00:55:15;;;;;;;2.65;1.00;;;;;;;;;;5066748;28;20276;-63
2022/07/15 00:57:44;;;;;;;1.00;1.00;;;;;;;;;;5067033;28;20211;-63
2022/07/15 01:00:13;;;;;;;2.20;1.40;;;;;;;;;;5066618;28;20210;-63
2022/07/15 01:02:42;;;;;;;2.40;1.45;;;;;;;;;;5067202;28;20236;-63
2022/07/15 01:05:11;;;;;;;1.40;1.30;;;;;;;;;;5067298;28;20736;-63
2022/07/15 01:07:38;;;;;;;1.40;1.15;;;;;;;;;;5066722;28;20326;-63
2022/07/15 01:10:07;;;;;;;1.27;1.27;;;;;;;;;;5067133;28;20227;-63
2022/07/15 01:12:35;;;;;;;1.35;1.25;;;;;;;;;;5066987;28;20626;-63
2022/07/15 01:15:04;;;;;;;3.03;1.30;;;;;;;;;;5067089;28;20322;-63
2022/07/15 01:17:31;;;;;;;1.10;1.10;;;;;;;;;;5065029;28;20237;-62
2022/07/15 01:19:58;;;;;;;1.40;1.30;;;;;;;;;;5067397;28;20730;-62
2022/07/15 01:22:26;;;;;;;1.40;1.40;;;;;;;;;;5066366;28;20207;-62
2022/07/15 01:24:54;;;;;;;1.52;1.23;;;;;;;;;;5067031;28;20218;-63
2022/07/15 01:27:21;;;;;;;1.55;1.45;;;;;;;;;;5066737;28;20665;-64
2022/07/15 01:29:48;;;;;;;1.30;1.20;;;;;;;;;;5066964;28;20227;-64
2022/07/15 01:32:16;;;;;;;2.40;1.88;;;;;;;;;;5066228;28;20203;-65
2022/07/15 01:34:43;;;;;;;2.70;1.45;;;;;;;;;;5065044;28;20211;-64
2022/07/15 01:37:10;;;;;;;3.15;1.70;;;;;;;;;;5066011;28;20218;-64
2022/07/15 01:39:38;;;;;;;1.52;1.52;;;;;;;;;;5065230;28;20222;-64
2022/07/15 01:42:06;;;;;;;3.05;1.75;;;;;;;;;;5066631;28;20256;-64
2022/07/15 01:44:33;;;;;;;1.30;1.23;;;;;;;;;;5065505;28;20207;-64
2022/07/15 01:47:00;;;;;;;1.25;1.25;;;;;;;;;;5066212;28;20238;-64
2022/07/15 01:49:26;;;;;;;1.55;1.45;;;;;;;;;;5066669;28;20207;-64
2022/07/15 01:51:54;;;;;;;1.20;1.20;;;;;;;;;;5066551;28;20314;-64
2022/07/15 01:54:21;;;;;;;2.47;1.58;;;;;;;;;;5059137;28;20315;-64
2022/07/15 01:56:50;;;;;;;8.18;1.30;;;;;;;;;;5063452;28;20211;-64
2022/07/15 01:59:17;;;;;;;2.55;1.40;;;;;;;;;;5066370;28;20199;-64
2022/07/15 02:01:44;;;;;;;2.47;1.83;;;;;;;;;;5055512;28;20223;-64
2022/07/15 02:04:12;;;;;;;5.18;2.00;;;;;;;;;;5065376;28;20268;-64
2022/07/15 02:06:39;;;;;;;1.20;1.20;;;;;;;;;;5066291;28;20222;-64
2022/07/15 02:09:07;;;;;;;3.50;1.20;;;;;;;;;;5065900;28;20207;-64
2022/07/15 02:11:34;;;;;;;3.65;1.52;;;;;;;;;;5065157;28;20234;-64
2022/07/15 02:14:02;;;;;;;1.85;1.30;;;;;;;;;;5066116;28;20207;-64
2022/07/15 02:16:30;;;;;;;1.40;1.40;;;;;;;;;;5066454;28;20268;-68
2022/07/15 02:18:57;;;;;;;2.78;1.40;;;;;;;;;;5065999;28;20289;-65
2022/07/15 02:21:26;;;;;;;1.38;1.27;;;;;;;;;;5066549;28;20322;-64
2022/07/15 02:23:53;;;;;;;4.03;1.38;;;;;;;;;;5065166;28;20731;-64
2022/07/15 02:26:20;;;;;;;1.65;1.55;;;;;;;;;;5066226;28;20243;-64
2022/07/15 02:28:47;;;;;;;2.47;1.35;;;;;;;;;;5065556;28;20256;-64
2022/07/15 02:31:16;;;;;;;1.33;1.25;;;;;;;;;;5065645;28;20226;-64
2022/07/15 02:33:43;;;;;;;2.80;1.30;;;;;;;;;;5065438;28;20828;-64
2022/07/15 02:36:10;;;;;;;1.23;1.23;;;;;;;;;;5065979;28;20264;-64
2022/07/15 02:38:37;;;;;;;2.53;1.60;;;;;;;;;;5064945;28;20862;-64
2022/07/15 02:41:05;;;;;;;1.25;1.25;;;;;;;;;;5063493;28;20218;-64
2022/07/15 02:43:32;;;;;;;3.50;2.00;;;;;;;;;;5065158;28;20760;-64
2022/07/15 02:45:59;;;;;;;1.40;1.33;;;;;;;;;;5065185;28;20243;-64
2022/07/15 02:48:27;;;;;;;1.80;1.70;;;;;;;;;;5065308;28;20775;-64
2022/07/15 02:50:54;;;;;;;2.85;1.90;;;;;;;;;;5066722;28;20230;-64
2022/07/15 02:53:25;;;;;;;1.75;1.65;;;;;;;;;;5065644;28;20214;-64
2022/07/15 02:55:52;;;;;;;1.80;1.70;;;;;;;;;;5069221;28;20219;-64
2022/07/15 02:58:19;;;;;;;5.38;1.85;;;;;;;;;;5068997;28;20673;-65
2022/07/15 03:00:46;;;;;;;1.60;1.52;;;;;;;;;;5068988;28;20592;-64
2022/07/15 03:03:13;;;;;;;1.58;1.50;;;;;;;;;;5068736;28;20203;-64
2022/07/15 03:05:42;;;;;;;1.65;1.55;;;;;;;;;;5068978;28;20215;-64
2022/07/15 03:08:09;;;;;;;2.08;1.63;;;;;;;;;;5068778;28;20230;-64
2022/07/15 03:10:36;;;;;;;1.65;1.50;;;;;;;;;;5068561;28;20716;-64
2022/07/15 03:13:04;;;;;;;2.45;1.90;;;;;;;;;;5068911;28;20203;-64
2022/07/15 03:15:31;;;;;;;1.88;1.77;;;;;;;;;;5069233;28;20211;-64
2022/07/15 03:17:58;;;;;;;1.50;1.50;;;;;;;;;;5064863;28;20210;-64
2022/07/15 03:20:25;;;;;;;1.58;1.58;;;;;;;;;;5068109;28;20636;-62
2022/07/15 03:22:53;;;;;;;1.60;1.50;;;;;;;;;;5068654;28;20210;-63
2022/07/15 03:25:20;;;;;;;3.10;1.70;;;;;;;;;;5068605;28;20711;-65
2022/07/15 03:27:47;;;;;;;1.95;1.60;;;;;;;;;;5069493;28;20677;-64
2022/07/15 03:30:14;;;;;;;1.55;1.45;;;;;;;;;;5067772;28;20203;-64
2022/07/15 03:32:41;;;;;;;2.00;1.70;;;;;;;;;;5069196;28;20207;-64
2022/07/15 03:35:12;;;;;;;2.03;1.52;;;;;;;;;;5068753;28;20199;-64
2022/07/15 03:37:39;;;;;;;1.55;1.45;;;;;;;;;;5068879;28;20210;-64
2022/07/15 03:40:08;;;;;;;1.60;1.40;;;;;;;;;;5068237;28;20626;-64
2022/07/15 03:42:35;;;;;;;3.83;1.83;;;;;;;;;;5068805;28;20559;-64
2022/07/15 03:45:02;;;;;;;3.13;1.55;;;;;;;;;;5066895;28;20236;-64
2022/07/15 03:47:29;;;;;;;1.40;1.40;;;;;;;;;;5068743;28;20247;-64
2022/07/15 03:49:56;;;;;;;2.15;1.60;;;;;;;;;;5068081;28;20207;-64
2022/07/15 03:52:23;;;;;;;1.23;1.23;;;;;;;;;;5068690;28;20966;-64
2022/07/15 03:54:50;;;;;;;2.13;1.60;;;;;;;;;;5064812;28;20237;-64
2022/07/15 03:57:19;;;;;;;1.23;1.23;;;;;;;;;;5068166;28;20210;-64
2022/07/15 03:59:46;;;;;;;1.50;1.42;;;;;;;;;;5068199;28;20211;-64
2022/07/15 04:02:13;;;;;;;4.55;1.60;;;;;;;;;;5067828;28;20195;-64
2022/07/15 04:04:41;;;;;;;1.50;1.50;;;;;;;;;;5068226;28;20210;-64
2022/07/15 04:07:08;;;;;;;2.28;1.52;;;;;;;;;;5068381;28;20305;-64
2022/07/15 04:09:35;;;;;;;1.33;1.33;;;;;;;;;;5068440;28;20214;-64
2022/07/15 04:12:02;;;;;;;1.52;1.42;;;;;;;;;;5066864;28;20276;-64
2022/07/15 04:14:30;;;;;;;2.80;1.35;;;;;;;;;;5067171;28;20689;-64
2022/07/15 04:16:57;;;;;;;1.60;1.50;;;;;;;;;;5067882;28;20264;-63
2022/07/15 04:19:24;;;;;;;3.53;1.70;;;;;;;;;;5067807;28;20857;-64
2022/07/15 04:21:51;;;;;;;1.60;1.50;;;;;;;;;;5067656;28;20207;-64
2022/07/15 04:24:18;;;;;;;1.88;1.75;;;;;;;;;;5068098;28;20215;-64
2022/07/15 04:26:48;;;;;;;1.85;1.30;;;;;;;;;;5066096;28;20203;-65
2022/07/15 04:29:15;;;;;;;1.30;1.30;;;;;;;;;;5067513;28;20687;-64
2022/07/15 04:31:43;;;;;;;1.73;1.63;;;;;;;;;;5068482;28;20288;-64
2022/07/15 04:34:10;;;;;;;2.65;1.20;;;;;;;;;;5068499;28;20237;-64
2022/07/15 04:36:39;;;;;;;2.03;1.50;;;;;;;;;;5072332;28;20649;-64
2022/07/15 04:39:06;;;;;;;1.63;1.52;;;;;;;;;;5071873;28;20211;-64
2022/07/15 04:41:33;;;;;;;1.67;1.58;;;;;;;;;;5072443;28;20603;-64
2022/07/15 04:44:00;;;;;;;1.83;1.38;;;;;;;;;;5072196;28;20252;-64
2022/07/15 04:46:27;;;;;;;2.60;1.40;;;;;;;;;;5071873;28;20246;-64
2022/07/15 04:51:40;;;;;;;1.90;1.80;;;;;;;;;;5071908;28;20230;-65
2022/07/15 04:54:07;;;;;;;2.60;1.50;;;;;;;;;;5070989;28;20545;-64
2022/07/15 04:56:34;;;;;;;2.85;1.40;;;;;;;;;;5071594;28;20279;-64
2022/07/15 04:59:01;;;;;;;1.08;1.02;;;;;;;;;;5071113;28;20203;-64
2022/07/15 05:01:28;;;;;;;2.67;1.42;;;;;;;;;;5067717;28;20256;-64
2022/07/15 05:03:56;;;;;;;4.97;1.90;;;;;;;;;;5071100;28;20207;-64
2022/07/15 05:06:23;;;;;;;3.90;1.15;;;;;;;;;;5071235;28;20210;-64
2022/07/15 05:08:50;;;;;;;2.83;1.40;;;;;;;;;;5071103;28;20264;-64
2022/07/15 05:11:17;;;;;;;1.55;1.30;;;;;;;;;;5069944;28;20716;-63
2022/07/15 05:13:44;;;;;;;3.38;1.10;;;;;;;;;;5069080;28;20216;-62
2022/07/15 05:16:11;;;;;;;1.17;1.08;;;;;;;;;;5070384;28;20207;-64
2022/07/15 05:18:40;;;;;;;0.90;0.90;;;;;;;;;;5070520;28;20207;-62
2022/07/15 05:21:08;;;;;;;1.08;0.98;;;;;;;;;;5071240;28;20286;-62
2022/07/15 05:23:35;;;;;;;1.55;1.10;;;;;;;;;;5070855;28;20306;-62
2022/07/15 05:26:02;;;;;;;1.10;1.10;;;;;;;;;;5071347;28;20215;-62
2022/07/15 05:28:29;;;;;;;2.25;1.33;;;;;;;;;;5071131;28;20611;-62
2022/07/15 05:30:56;;;;;;;1.20;1.00;;;;;;;;;;5069962;28;20199;-63
2022/07/15 05:33:23;;;;;;;1.70;1.38;;;;;;;;;;5070240;28;20209;-63
2022/07/15 05:35:50;;;;;;;6.40;1.13;;;;;;;;;;5070714;28;20206;-63
2022/07/15 05:38:19;;;;;;;1.05;1.00;;;;;;;;;;5070549;28;20203;-63
2022/07/15 05:40:46;;;;;;;1.20;1.10;;;;;;;;;;5070693;28;20214;-63
2022/07/15 05:43:13;;;;;;;1.95;1.02;;;;;;;;;;5070083;28;20234;-63
2022/07/15 05:45:40;;;;;;;1.52;1.00;;;;;;;;;;5070015;28;20239;-63
2022/07/15 05:48:07;;;;;;;3.03;1.20;;;;;;;;;;5068621;28;20211;-63
2022/07/15 05:50:34;;;;;;;2.90;1.20;;;;;;;;;;5070527;28;20867;-63
2022/07/15 05:53:01;;;;;;;3.67;1.50;;;;;;;;;;5070179;28;20226;-63
2022/07/15 05:55:30;;;;;;;4.00;1.33;;;;;;;;;;5068171;28;20703;-63
2022/07/15 05:57:57;;;;;;;4.35;1.10;;;;;;;;;;5069777;28;20207;-63
2022/07/15 06:00:24;;;;;;;1.08;1.05;;;;;;;;;;5070182;28;20207;-63
2022/07/15 06:02:51;;;;;;;2.88;1.25;;;;;;;;;;5067366;28;20204;-63
2022/07/15 06:05:19;;;;;;;2.38;1.00;;;;;;;;;;5059418;28;20556;-63
2022/07/15 06:07:46;;;;;;;1.73;1.02;;;;;;;;;;5070223;28;20214;-63
2022/07/15 06:10:13;;;;;;;1.10;0.90;;;;;;;;;;5068883;28;20260;-64
2022/07/15 06:12:41;;;;;;;1.90;1.27;;;;;;;;;;5068041;28;20285;-63
2022/07/15 06:15:09;;;;;;;1.23;1.17;;;;;;;;;;5069529;28;20204;-65
2022/07/15 06:17:36;;;;;;;5.10;1.35;;;;;;;;;;5069653;28;20290;-63
2022/07/15 06:20:04;;;;;;;3.13;0.90;;;;;;;;;;5070272;28;20210;-65
2022/07/15 06:22:31;;;;;;;0.90;0.70;;;;;;;;;;5067659;28;20226;-63
2022/07/15 06:24:58;;;;;;;1.30;1.20;;;;;;;;;;5067716;28;20696;-63
2022/07/15 06:27:25;;;;;;;3.53;0.90;;;;;;;;;;5069349;28;20203;-63
2022/07/15 06:29:53;;;;;;;0.90;0.90;;;;;;;;;;5069053;28;20268;-63
2022/07/15 06:32:20;;;;;;;1.33;1.00;;;;;;;;;;5069608;28;20638;-65
2022/07/15 06:34:47;;;;;;;1.00;0.98;;;;;;;;;;5066764;28;20207;-63
2022/07/15 06:37:14;;;;;;;3.58;0.95;;;;;;;;;;5065724;28;20615;-63
2022/07/15 06:39:41;;;;;;;5.53;1.00;;;;;;;;;;5067188;28;20207;-63
2022/07/15 06:42:10;;;;;;;6.03;1.10;;;;;;;;;;5069195;28;20206;-62
2022/07/15 06:44:37;;;;;;;1.85;0.80;;;;;;;;;;5068987;28;20207;-66
2022/07/15 06:47:06;;;;;;;1.50;0.90;;;;;;;;;;5069047;28;20238;-63
2022/07/15 06:49:34;;;;;;;2.75;0.80;;;;;;;;;;5069259;28;20226;-63
2022/07/15 06:52:01;;;;;;;3.20;1.08;;;;;;;;;;5067608;28;20242;-63
2022/07/15 06:54:28;;;;;;;2.28;0.90;;;;;;;;;;5068163;28;20230;-64
2022/07/15 06:56:55;;;;;;;2.50;1.25;;;;;;;;;;5068566;28;20269;-63
2022/07/15 06:59:22;;;;;;;2.30;1.02;;;;;;;;;;5066300;28;20199;-63
2022/07/15 07:01:49;;;;;;;3.40;1.10;;;;;;;;;;5069021;28;20744;-63
2022/07/15 07:04:18;;;;;;;1.30;0.90;;;;;;;;;;5067820;28;20203;-62
2022/07/15 07:06:45;;;;;;;2.08;0.82;;;;;;;;;;5068317;28;20754;-62
2022/07/15 07:09:12;;;;;;;1.25;0.90;;;;;;;;;;5065983;28;20211;-63
2022/07/15 07:11:39;;;;;;;0.85;0.70;;;;;;;;;;5068925;28;20227;-63
2022/07/15 07:14:06;;;;;;;1.95;0.90;;;;;;;;;;5067789;28;20652;-64
2022/07/15 07:16:34;;;;;;;3.45;0.90;;;;;;;;;;5068213;28;20202;-65
2022/07/15 07:19:01;;;;;;;3.30;1.00;;;;;;;;;;5068774;28;20264;-66
2022/07/15 07:21:29;;;;;;;2.13;0.73;;;;;;;;;;5068377;28;20211;-67
2022/07/15 07:23:56;;;;;;;3.85;0.80;;;;;;;;;;5068387;28;20202;-67
2022/07/15 07:26:23;;;;;;;7.05;0.98;;;;;;;;;;5068853;28;20211;-67
2022/07/15 07:28:51;;;;;;;0.80;0.70;;;;;;;;;;5062565;28;20210;-65
2022/07/15 07:31:22;;;;;;;0.90;0.70;;;;;;;;;;5068750;28;20211;-65
2022/07/15 07:33:49;;;;;;;1.52;0.90;;;;;;;;;;5067457;28;20199;-64
2022/07/15 07:36:16;;;;;;;4.53;0.95;;;;;;;;;;5068620;28;20210;-65
2022/07/15 07:38:45;;;;;;;2.42;0.93;;;;;;;;;;5068231;28;20211;-64
2022/07/15 07:41:12;;;;;;;2.25;0.90;;;;;;;;;;5068713;28;20649;-65
2022/07/15 07:43:39;;;;;;;0.82;0.80;;;;;;;;;;5067759;28;20199;-64
2022/07/15 07:46:06;;;;;;;3.25;0.93;;;;;;;;;;5067912;28;20333;-65
2022/07/15 07:48:35;;;;;;;0.68;0.68;;;;;;;;;;5069763;28;20293;-62
2022/07/15 07:51:02;;;;;;;2.90;1.00;;;;;;;;;;5077011;28;20210;-63
2022/07/15 07:53:29;;;;;;;1.95;0.98;;;;;;;;;;5081728;28;20230;-63
2022/07/15 07:55:57;;;;;;;1.23;0.80;;;;;;;;;;5083872;28;20221;-63
2022/07/15 07:58:24;;;;;;;0.73;0.73;;;;;;;;;;5067149;28;20217;-63
2022/07/15 08:00:52;;;;;;;1.60;0.80;;;;;;;;;;5068161;28;20222;-63
2022/07/15 08:03:19;;;;;;;4.80;0.80;;;;;;;;;;5068259;28;20729;-63
2022/07/15 08:05:47;;;;;;;2.45;0.82;;;;;;;;;;5068265;28;20211;-63
2022/07/15 08:08:15;;;;;;;1.55;0.85;;;;;;;;;;5068030;28;20810;-63
2022/07/15 08:10:43;;;;;;;1.55;0.88;;;;;;;;;;5068734;28;20669;-63
2022/07/15 08:13:12;;;;;;;2.17;1.15;;;;;;;;;;5071597;28;20303;-64
2022/07/15 08:15:40;;;;;;;1.40;0.85;;;;;;;;;;5071640;28;20211;-63
2022/07/15 08:18:07;;;;;;;0.82;0.80;;;;;;;;;;5071723;28;20207;-62
2022/07/15 08:20:35;;;;;;;0.75;0.70;;;;;;;;;;5051811;28;20204;-64
2022/07/15 08:23:03;;;;;;;0.95;0.88;;;;;;;;;;5081684;28;20294;-63
2022/07/15 08:25:32;;;;;;;1.23;1.15;;;;;;;;;;5071635;28;20668;-63
2022/07/15 08:27:59;;;;;;;4.70;1.00;;;;;;;;;;5071667;28;20211;-62
2022/07/15 08:30:28;;;;;;;1.33;0.80;;;;;;;;;;5070988;28;20206;-62
2022/07/15 08:32:56;;;;;;;2.67;0.93;;;;;;;;;;5071546;28;20238;-62
2022/07/15 08:35:24;;;;;;;3.80;0.95;;;;;;;;;;5071722;28;20237;-63
2022/07/15 08:37:51;;;;;;;1.15;1.00;;;;;;;;;;5071278;28;20218;-63
2022/07/15 08:40:18;;;;;;;1.95;1.02;;;;;;;;;;5071382;28;20689;-62
2022/07/15 08:42:47;;;;;;;2.47;1.10;;;;;;;;;;5072682;28;20192;-63
2022/07/15 08:45:15;;;;;;;1.15;1.13;;;;;;;;;;5081892;28;20207;-63
2022/07/15 08:47:45;;;;;;;1.48;1.20;;;;;;;;;;5070938;28;20211;-62
2022/07/15 08:50:12;;;;;;;1.15;1.15;;;;;;;;;;5070713;28;20214;-62
2022/07/15 08:52:40;;;;;;;1.10;1.10;;;;;;;;;;5070834;28;20230;-63
2022/07/15 08:55:08;;;;;;;2.70;1.55;;;;;;;;;;5070503;28;20273;-62
2022/07/15 08:57:35;;;;;;;1.33;1.27;;;;;;;;;;5070739;28;20215;-62
2022/07/15 09:00:03;;;;;;;3.20;1.70;;;;;;;;;;5070504;28;20203;-62
2022/07/15 09:02:30;;;;;;;3.30;1.40;;;;;;;;;;5070659;28;20207;-62
2022/07/15 09:05:16;;;;;;;1.30;1.30;;;;;;;;;;5070572;28;20242;-62
2022/07/15 09:07:53;;;;;;;1.90;1.25;;;;;;;;;;5070307;28;20673;-62
2022/07/15 09:10:20;;;;;;;1.15;1.08;;;;;;;;;;5070399;28;20290;-62
2022/07/15 09:12:50;;;;;;;1.15;1.15;;;;;;;;;;5070297;28;20233;-62
2022/07/15 09:15:30;;;;;;;4.38;1.42;;;;;;;;;;5070838;28;20258;-62
2022/07/15 09:18:06;;;;;;;2.15;1.45;;;;;;;;;;5070087;28;20206;-60
2022/07/15 09:20:33;;;;;;;3.28;1.58;;;;;;;;;;5058542;28;20202;-62
2022/07/15 09:23:02;;;;;;;3.60;1.55;;;;;;;;;;5070767;28;20580;-61
2022/07/15 09:25:29;;;;;;;4.03;1.30;;;;;;;;;;5069036;28;20211;-62
2022/07/15 09:28:00;;;;;;;1.90;1.80;;;;;;;;;;5070525;28;20616;-63
2022/07/15 09:36:05;;;;;;;3.55;1.77;;;;;;;;;;5070256;28;20255;-61
2022/07/15 09:38:34;;;;;;;2.55;2.45;;;;;;;;;;5070466;28;20739;-62
2022/07/15 09:41:02;;;;;;;3.83;2.70;;;;;;;;;;5070599;28;20256;-62
2022/07/15 09:43:29;;;;;;;3.22;2.80;;;;;;;;;;5076305;28;20384;-63
2022/07/15 09:46:00;;;;;;;2.20;2.10;;;;;;;;;;5070028;28;20582;-64
2022/07/15 09:48:28;;;;;;;38.08;15.10;;;;;;;;;;5067122;28;20243;-64
2022/07/15 09:50:59;;;;;;;14.43;5.60;;;;;;;;;;5069488;28;20671;-64
2022/07/15 09:53:26;;;;;;;10.10;5.00;;;;;;;;;;5070262;28;20321;-65
2022/07/15 09:55:55;;;;;;;3.97;2.40;;;;;;;;;;5069807;28;20234;-65
2022/07/15 09:58:22;;;;;;;1.92;1.90;;;;;;;;;;5070484;28;20215;-62
2022/07/15 10:00:51;;;;;;;2.67;2.30;;;;;;;;;;5069041;28;20203;-66
2022/07/15 10:03:18;;;;;;;2.10;2.00;;;;;;;;;;5074717;28;20217;-64
2022/07/15 10:05:46;;;;;;;2.00;1.90;;;;;;;;;;5071674;28;20214;-61
2022/07/15 10:08:15;;;;;;;2.83;2.63;;;;;;;;;;5070042;28;20241;-62
2022/07/15 10:10:42;;;;;;;2.92;2.17;;;;;;;;;;5069594;28;20211;-62
2022/07/15 10:13:18;;;;;;;2.70;1.80;;;;;;;;;;5069782;28;20230;-60
2022/07/15 10:15:48;;;;;;;2.60;2.03;;;;;;;;;;5069687;28;20207;-62
2022/07/15 10:18:22;;;;;;;2.22;2.03;;;;;;;;;;5069906;28;20265;-65
2022/07/15 10:20:56;;;;;;;2.38;2.15;;;;;;;;;;5067877;28;20210;-64
2022/07/15 10:23:38;;;;;;;2.42;2.25;;;;;;;;;;5069052;28;20195;-65
2022/07/15 10:26:14;;;;;;;3.55;2.10;;;;;;;;;;5059774;28;20203;-65
2022/07/15 10:28:49;;;;;;;1.95;1.90;;;;;;;;;;5083860;28;20198;-65
2022/07/15 10:31:22;;;;;;;1.98;1.88;;;;;;;;;;5066626;28;20210;-68
2022/07/15 10:34:08;;;;;;;2.33;2.13;;;;;;;;;;5048862;28;20227;-66
2022/07/15 10:36:39;;;;;;;2.05;1.83;;;;;;;;;;5054672;28;20211;-67
2022/07/15 10:39:08;;;;;;;1.55;1.45;;;;;;;;;;5068565;28;20290;-67
2022/07/15 10:41:49;;;;;;;2.15;2.05;;;;;;;;;;5067362;28;20207;-67
2022/07/15 10:44:17;;;;;;;1.58;1.50;;;;;;;;;;5069355;28;20199;-66
2022/07/15 10:46:44;;;;;;;1.50;1.50;;;;;;;;;;5067166;28;20276;-65
2022/07/15 10:49:29;;;;;;;2.83;1.52;;;;;;;;;;5082559;28;20679;-65
2022/07/15 10:51:56;;;;;;;2.38;2.05;;;;;;;;;;5085787;28;20297;-65
2022/07/15 10:54:40;;;;;;;1.50;1.50;;;;;;;;;;5068442;28;20719;-65
2022/07/15 10:57:08;;;;;;;2.17;1.77;;;;;;;;;;5068334;28;20298;-64
2022/07/15 10:59:41;;;;;;;4.55;1.73;;;;;;;;;;5069776;28;20203;-68
2022/07/15 11:02:12;;;;;;;2.78;1.48;;;;;;;;;;5068185;28;20291;-65
2022/07/15 11:04:41;;;;;;;1.63;1.42;;;;;;;;;;5068884;28;20222;-69
2022/07/15 11:07:24;;;;;;;1.88;1.77;;;;;;;;;;5067904;28;20199;-70
2022/07/15 11:09:52;;;;;;;2.10;1.85;;;;;;;;;;5062743;28;20252;-67
2022/07/15 11:12:20;;;;;;;1.70;1.60;;;;;;;;;;5068104;28;20298;-60
2022/07/15 11:14:50;;;;;;;2.88;1.98;;;;;;;;;;5068166;28;20226;-65
2022/07/15 11:17:19;;;;;;;2.22;1.90;;;;;;;;;;5066000;28;20207;-64
2022/07/15 11:19:48;;;;;;;1.77;1.67;;;;;;;;;;5065555;28;20732;-65
2022/07/15 11:22:16;;;;;;;4.75;1.92;;;;;;;;;;5066393;28;20199;-65
2022/07/15 11:24:43;;;;;;;1.92;1.55;;;;;;;;;;5063513;28;20206;-65
2022/07/15 11:27:10;;;;;;;1.80;1.70;;;;;;;;;;5066960;28;21562;-65
2022/07/15 11:29:44;;;;;;;2.63;1.77;;;;;;;;;;5067277;28;20890;-64
2022/07/15 11:32:13;;;;;;;1.80;1.65;;;;;;;;;;5067115;28;21012;-66
2022/07/15 11:34:41;;;;;;;1.90;1.80;;;;;;;;;;5065446;28;20251;-67
2022/07/15 11:37:10;;;;;;;3.35;1.80;;;;;;;;;;5061540;28;20215;-67
2022/07/15 11:39:37;;;;;;;2.63;2.10;;;;;;;;;;5064622;28;20272;-66
2022/07/15 11:44:50;;;;;;;1.73;1.63;;;;;;;;;;5046541;28;20342;-67
2022/07/15 11:47:19;;;;;;;2.28;1.30;;;;;;;;;;5044105;28;20231;-67
2022/07/15 11:49:46;;;;;;;1.60;1.50;;;;;;;;;;5042411;28;20216;-67
2022/07/15 11:52:22;;;;;;;2.67;1.70;;;;;;;;;;5052009;28;20586;-67
2022/07/15 11:54:49;;;;;;;2.05;1.50;;;;;;;;;;5047320;28;20235;-68
2022/07/15 11:57:16;;;;;;;1.40;1.33;;;;;;;;;;5044832;28;20249;-67
2022/07/15 11:59:51;;;;;;;1.67;1.65;;;;;;;;;;5047939;28;20226;-67
2022/07/15 12:02:20;;;;;;;1.30;1.23;;;;;;;;;;5047839;28;20261;-68
2022/07/15 12:04:47;;;;;;;2.35;1.58;;;;;;;;;;5047925;28;20208;-68
2022/07/15 12:07:14;;;;;;;2.15;1.60;;;;;;;;;;5051784;28;20212;-67
2022/07/15 12:09:41;;;;;;;3.35;1.40;;;;;;;;;;5063349;28;20257;-68
2022/07/15 12:12:08;;;;;;;2.60;1.65;;;;;;;;;;5047605;28;20207;-67
2022/07/15 12:14:36;;;;;;;1.75;1.65;;;;;;;;;;5047133;28;20580;-68
2022/07/15 12:17:03;;;;;;;1.60;1.50;;;;;;;;;;5047158;28;20208;-67
2022/07/15 12:19:32;;;;;;;1.60;1.50;;;;;;;;;;5045829;28;20968;-67
2022/07/15 12:22:05;;;;;;;2.72;1.50;;;;;;;;;;5048009;28;20646;-67
2022/07/15 12:24:38;;;;;;;1.50;1.50;;;;;;;;;;5048001;28;20302;-67
2022/07/15 12:27:05;;;;;;;2.47;1.65;;;;;;;;;;5060252;28;20207;-67
2022/07/15 12:29:33;;;;;;;1.77;1.50;;;;;;;;;;5040539;28;20204;-65
2022/07/15 12:32:01;;;;;;;2.05;1.52;;;;;;;;;;5046966;28;20807;-66
2022/07/15 12:34:42;;;;;;;1.83;1.83;;;;;;;;;;5047533;28;20227;-66
2022/07/15 12:37:11;;;;;;;1.55;1.45;;;;;;;;;;5047591;28;20216;-64
2022/07/15 12:39:53;;;;;;;3.17;1.60;;;;;;;;;;5047245;28;20758;-65
2022/07/15 12:42:20;;;;;;;1.60;1.60;;;;;;;;;;5048051;28;20303;-65
2022/07/15 12:44:47;;;;;;;1.40;1.30;;;;;;;;;;5059622;28;20689;-66
2022/07/15 12:47:17;;;;;;;1.80;1.70;;;;;;;;;;5048631;28;20940;-65
2022/07/15 12:49:46;;;;;;;3.40;1.88;;;;;;;;;;5047390;28;20222;-66
2022/07/15 12:52:19;;;;;;;2.10;1.70;;;;;;;;;;5046617;28;20586;-66
2022/07/15 12:54:46;;;;;;;1.90;1.80;;;;;;;;;;5047247;28;20235;-66
2022/07/15 12:57:20;;;;;;;1.67;1.50;;;;;;;;;;5047348;28;20204;-65
2022/07/15 12:59:50;;;;;;;1.38;1.35;;;;;;;;;;5051174;28;20203;-67
2022/07/15 13:02:17;;;;;;;3.45;1.70;;;;;;;;;;5061955;28;20207;-66
2022/07/15 13:04:44;;;;;;;2.63;1.73;;;;;;;;;;5051658;28;20777;-64
2022/07/15 13:07:12;;;;;;;2.03;1.90;;;;;;;;;;5065529;28;20613;-66
2022/07/15 13:09:40;;;;;;;2.72;1.77;;;;;;;;;;5051407;28;20204;-66
2022/07/15 13:12:09;;;;;;;2.50;1.92;;;;;;;;;;5051216;28;20308;-67
2022/07/15 13:14:36;;;;;;;2.53;1.75;;;;;;;;;;5056760;28;20234;-65
2022/07/15 13:17:03;;;;;;;2.67;1.80;;;;;;;;;;5052178;28;20246;-65
2022/07/15 13:19:30;;;;;;;2.13;2.08;;;;;;;;;;5048768;28;20211;-64
2022/07/15 13:21:57;;;;;;;1.77;1.67;;;;;;;;;;5047653;28;20206;-65
2022/07/15 13:24:24;;;;;;;2.30;1.65;;;;;;;;;;5050820;28;20204;-64
2022/07/15 13:26:53;;;;;;;1.65;1.55;;;;;;;;;;5049282;28;20634;-64
2022/07/15 13:29:20;;;;;;;1.75;1.65;;;;;;;;;;5049340;28;20207;-65
2022/07/15 13:31:47;;;;;;;2.00;1.90;;;;;;;;;;5049667;28;20658;-65
2022/07/15 13:34:14;;;;;;;1.75;1.65;;;;;;;;;;5052568;28;20215;-65
2022/07/15 13:36:41;;;;;;;2.83;1.95;;;;;;;;;;5056689;28;20208;-68
2022/07/15 13:39:08;;;;;;;2.25;1.70;;;;;;;;;;5050738;28;20216;-64
2022/07/15 13:41:35;;;;;;;2.60;2.00;;;;;;;;;;5050302;28;20212;-65
2022/07/15 13:44:04;;;;;;;1.40;1.40;;;;;;;;;;5050192;28;20208;-65
2022/07/15 13:46:31;;;;;;;2.20;2.00;;;;;;;;;;5050133;28;20227;-65
2022/07/15 13:48:59;;;;;;;1.60;1.60;;;;;;;;;;5050414;28;20590;-65
2022/07/15 13:51:25;;;;;;;1.67;1.60;;;;;;;;;;5050696;28;20204;-65
2022/07/15 13:53:52;;;;;;;1.60;1.50;;;;;;;;;;5049896;28;20306;-65
2022/07/15 13:56:20;;;;;;;3.08;1.52;;;;;;;;;;5050105;28;20227;-65
2022/07/15 13:58:48;;;;;;;1.90;1.80;;;;;;;;;;5050158;28;20670;-65
2022/07/15 14:01:17;;;;;;;2.53;1.70;;;;;;;;;;5050556;28;20204;-66
2022/07/15 14:03:44;;;;;;;1.58;1.55;;;;;;;;;;5053673;28;20200;-66
2022/07/15 14:06:11;;;;;;;2.03;1.73;;;;;;;;;;5049249;28;20199;-63
2022/07/15 14:08:38;;;;;;;1.67;1.58;;;;;;;;;;5054364;28;20207;-66
2022/07/15 14:11:05;;;;;;;1.70;1.60;;;;;;;;;;5056101;28;20211;-67
2022/07/15 14:13:32;;;;;;;2.05;1.95;;;;;;;;;;5049266;28;20219;-66
2022/07/15 14:15:59;;;;;;;2.20;1.85;;;;;;;;;;5049920;28;20215;-68
2022/07/15 14:18:46;;;;;;;1.75;1.52;;;;;;;;;;5049348;28;20261;-68
2022/07/15 14:21:15;;;;;;;3.17;1.58;;;;;;;;;;5048667;28;20269;-68
2022/07/15 14:23:42;;;;;;;1.65;1.65;;;;;;;;;;5050755;28;20298;-68
2022/07/15 14:26:09;;;;;;;1.42;1.40;;;;;;;;;;5049970;28;20211;-68
2022/07/15 14:28:36;;;;;;;1.50;1.40;;;;;;;;;;5050307;28;20261;-68
2022/07/15 14:31:03;;;;;;;1.75;1.20;;;;;;;;;;5050428;28;20279;-68
2022/07/15 14:33:31;;;;;;;1.70;1.60;;;;;;;;;;5050769;28;20211;-68
2022/07/15 14:35:58;;;;;;;1.35;1.25;;;;;;;;;;5048602;28;20224;-67
2022/07/15 14:38:25;;;;;;;1.23;1.23;;;;;;;;;;5052385;28;20204;-68
2022/07/15 14:40:52;;;;;;;1.77;1.60;;;;;;;;;;5049567;28;20212;-68
2022/07/15 14:43:19;;;;;;;1.25;1.15;;;;;;;;;;5049298;28;20211;-68
2022/07/15 14:45:47;;;;;;;1.10;1.08;;;;;;;;;;5047589;28;20228;-67
2022/07/15 14:48:14;;;;;;;1.33;1.33;;;;;;;;;;5048063;28;20203;-66
2022/07/15 14:50:42;;;;;;;1.20;1.17;;;;;;;;;;5047535;28;20752;-67
2022/07/15 14:53:09;;;;;;;1.08;1.08;;;;;;;;;;5048333;28;20203;-61
2022/07/15 14:55:36;;;;;;;1.55;1.30;;;;;;;;;;5046942;28;20247;-65
2022/07/15 14:58:22;;;;;;;;;;;;;;;;;;;;;
2022/07/15 15:00:49;;;;;;;5.45;3.10;;;;;;;;;;5037710;28;20666;-67